createdAt,value
2022-12-04T00:03:31.817Z,20.80
2022-12-04T00:08:23.337Z,20.80
2022-12-04T00:13:14.900Z,19.90
2022-12-04T00:18:06.423Z,20.33
2022-12-04T00:22:58.885Z,20.93
2022-12-04T00:27:50.520Z,20.30
2022-12-04T00:32:42.091Z,17.67
2022-12-04T00:37:34.167Z,16.27
2022-12-04T00:42:25.758Z,19.73
2022-12-04T00:47:17.338Z,18.53
2022-12-04T00:52:08.965Z,18.80
2022-12-04T00:57:00.467Z,16.87
2022-12-04T01:01:52.469Z,19.90
2022-12-04T01:06:44.111Z,19.10
2022-12-04T01:11:35.738Z,17.03
2022-12-04T01:16:33.870Z,18.13
2022-12-04T01:21:25.844Z,20.03
2022-12-04T01:26:17.603Z,19.60
2022-12-04T01:31:13.189Z,16.80
2022-12-04T01:36:07.772Z,16.67
2022-12-04T01:40:59.855Z,16.13
2022-12-04T01:45:56.620Z,16.87
2022-12-04T01:50:52.072Z,16.87
2022-12-04T01:55:45.347Z,19.10
2022-12-04T02:00:36.975Z,18.63
2022-12-04T02:05:28.533Z,16.83
2022-12-04T02:10:25.028Z,16.13
2022-12-04T02:15:24.418Z,16.13
2022-12-04T02:20:23.174Z,14.40
2022-12-04T02:25:23.972Z,14.30
2022-12-04T02:30:15.688Z,13.53
2022-12-04T02:35:33.360Z,12.77
2022-12-04T02:40:29.327Z,11.83
2022-12-04T02:45:26.274Z,10.90
2022-12-04T02:50:22.154Z,11.60
2022-12-04T02:55:24.508Z,11.67
2022-12-04T03:00:17.407Z,12.57
2022-12-04T03:05:20.121Z,10.97
2022-12-04T03:10:27.161Z,11.20
2022-12-04T03:15:31.212Z,12.33
2022-12-04T03:20:25.576Z,12.87
2022-12-04T03:25:17.588Z,13.67
2022-12-04T03:30:36.654Z,11.77
2022-12-04T03:35:36.625Z,13.53
2022-12-04T03:40:57.846Z,12.97
2022-12-04T03:45:59.618Z,11.53
2022-12-04T03:51:07.840Z,13.13
2022-12-04T03:56:10.836Z,12.33
2022-12-04T04:01:07.390Z,13.83
2022-12-04T04:06:06.043Z,13.40
2022-12-04T04:11:35.916Z,13.07
2022-12-04T04:17:03.393Z,12.67
2022-12-04T04:22:15.946Z,12.50
2022-12-04T04:27:07.595Z,13.23
2022-12-04T04:32:22.276Z,11.80
2022-12-04T04:37:20.509Z,11.60
2022-12-04T04:42:26.617Z,11.47
2022-12-04T04:47:33.423Z,12.13
2022-12-04T04:52:25.253Z,11.97
2022-12-04T04:57:32.052Z,11.73
2022-12-04T05:02:26.480Z,12.53
2022-12-04T05:07:18.894Z,11.10
2022-12-04T05:12:10.485Z,11.80
2022-12-04T05:17:07.878Z,10.10
2022-12-04T05:22:03.884Z,11.97
2022-12-04T05:26:55.385Z,10.67
2022-12-04T05:31:47.046Z,11.53
2022-12-04T05:36:38.684Z,13.53
2022-12-04T05:41:30.195Z,11.67
2022-12-04T05:46:21.810Z,10.40
2022-12-04T05:51:13.657Z,9.17
2022-12-04T05:56:07.338Z,9.77
2022-12-04T06:00:58.873Z,10.63
2022-12-04T06:05:50.405Z,8.37
2022-12-04T06:10:42.638Z,10.63
2022-12-04T06:15:39.225Z,8.00
2022-12-04T06:20:30.958Z,9.27
2022-12-04T06:25:22.540Z,9.73
2022-12-04T06:30:14.342Z,9.73
2022-12-04T06:35:07.047Z,9.80
2022-12-04T06:39:58.836Z,10.00
2022-12-04T06:44:50.563Z,9.07
2022-12-04T06:49:42.367Z,8.13
2022-12-04T06:54:34.005Z,10.07
2022-12-04T06:59:25.651Z,10.80
2022-12-04T07:04:17.245Z,11.77
2022-12-04T07:09:17.425Z,10.27
2022-12-04T07:14:09.211Z,9.90
2022-12-04T07:19:00.887Z,9.93
2022-12-04T07:23:55.014Z,10.13
2022-12-04T07:28:47.030Z,9.83
2022-12-04T07:33:39.158Z,9.90
2022-12-04T07:38:31.912Z,9.07
2022-12-04T07:43:24.162Z,9.87
2022-12-04T07:48:15.799Z,9.97
2022-12-04T07:53:07.355Z,9.67
2022-12-04T07:57:59.746Z,10.30
2022-12-04T08:02:51.356Z,9.30
2022-12-04T08:07:42.949Z,9.63
2022-12-04T08:12:34.670Z,11.10
2022-12-04T08:17:26.541Z,11.37
2022-12-04T08:22:23.409Z,10.90
2022-12-04T08:27:16.901Z,10.17
2022-12-04T08:32:08.679Z,10.93
2022-12-04T08:37:00.301Z,10.37
2022-12-04T08:41:56.819Z,10.60
2022-12-04T08:46:48.882Z,11.97
2022-12-04T08:51:40.550Z,11.00
2022-12-04T08:56:33.083Z,12.57
2022-12-04T09:01:26.027Z,10.80
2022-12-04T09:06:18.696Z,10.73
2022-12-04T09:11:15.939Z,11.20
2022-12-04T09:16:10.507Z,10.37
2022-12-04T09:21:05.357Z,9.97
2022-12-04T09:25:57.242Z,11.27
2022-12-04T09:31:06.985Z,12.77
2022-12-04T09:36:00.001Z,12.40
2022-12-04T09:41:05.093Z,12.43
2022-12-04T09:46:02.495Z,13.13
2022-12-04T09:50:55.917Z,13.83
2022-12-04T09:55:54.705Z,10.47
2022-12-04T10:00:49.724Z,11.40
2022-12-04T10:05:54.509Z,12.93
2022-12-04T10:11:12.244Z,12.90
2022-12-04T10:16:14.878Z,12.57
2022-12-04T10:21:15.577Z,10.50
2022-12-04T10:26:18.263Z,13.43
2022-12-04T10:31:14.888Z,11.00
2022-12-04T10:36:10.830Z,12.17
2022-12-04T10:41:17.942Z,11.87
2022-12-04T10:46:21.189Z,13.20
2022-12-04T10:51:16.567Z,11.53
2022-12-04T10:56:10.598Z,14.40
2022-12-04T11:01:06.021Z,12.67
2022-12-04T11:06:09.443Z,12.10
2022-12-04T11:11:08.189Z,14.60
2022-12-04T11:16:00.246Z,11.97
2022-12-04T11:21:04.960Z,11.47
2022-12-04T11:26:05.512Z,12.50
2022-12-04T11:31:02.130Z,10.93
2022-12-04T11:35:56.830Z,12.03
2022-12-04T11:40:54.807Z,9.47
2022-12-04T11:46:06.675Z,10.70
2022-12-04T11:51:16.422Z,10.77
2022-12-04T11:56:15.968Z,10.97
2022-12-04T12:01:40.583Z,11.57
2022-12-04T12:06:37.600Z,13.00
2022-12-04T12:11:49.731Z,11.27
2022-12-04T12:16:56.407Z,10.87
2022-12-04T12:21:50.885Z,12.07
2022-12-04T12:26:55.261Z,11.40
2022-12-04T12:31:56.008Z,13.77
2022-12-04T12:36:50.557Z,11.57
2022-12-04T12:41:48.626Z,11.17
2022-12-04T12:47:09.686Z,12.73
2022-12-04T12:52:17.322Z,11.27
2022-12-04T12:57:36.660Z,13.10
2022-12-04T13:02:28.407Z,12.50
2022-12-04T13:07:37.665Z,13.83
2022-12-04T13:12:31.791Z,14.27
2022-12-04T13:17:39.165Z,13.40
2022-12-04T13:22:57.154Z,12.47
2022-12-04T13:28:00.967Z,14.37
2022-12-04T13:33:19.831Z,11.83
2022-12-04T13:38:26.697Z,13.20
2022-12-04T13:43:41.927Z,14.23
2022-12-04T13:48:40.122Z,11.70
2022-12-04T13:53:37.684Z,13.17
2022-12-04T13:58:32.492Z,13.40
2022-12-04T14:03:28.460Z,13.30
2022-12-04T14:08:20.056Z,14.73
2022-12-04T14:13:23.612Z,13.53
2022-12-04T14:18:29.494Z,13.93
2022-12-04T14:23:26.517Z,13.07
2022-12-04T14:28:42.214Z,13.67
2022-12-04T14:33:39.631Z,16.87
2022-12-04T14:38:32.982Z,16.40
2022-12-04T14:43:27.346Z,17.00
2022-12-04T14:48:38.856Z,15.87
2022-12-04T14:53:41.722Z,11.77
2022-12-04T14:58:36.879Z,11.97
2022-12-04T15:03:31.650Z,11.40
2022-12-04T15:08:23.361Z,14.60
2022-12-04T15:13:37.997Z,12.17
2022-12-04T15:18:29.613Z,12.73
2022-12-04T15:23:27.881Z,14.20
2022-12-04T15:28:29.001Z,13.03
2022-12-04T15:33:25.434Z,13.93
2022-12-04T15:38:18.788Z,15.73
2022-12-04T15:43:16.998Z,16.73
2022-12-04T15:48:08.730Z,15.40
2022-12-04T15:53:18.190Z,16.70
2022-12-04T15:58:40.130Z,15.77
2022-12-04T16:03:37.461Z,14.10
2022-12-04T16:08:31.993Z,12.57
2022-12-04T16:13:29.492Z,12.93
2022-12-04T16:18:21.093Z,13.33
2022-12-04T16:23:13.846Z,14.20
2022-12-04T16:28:05.425Z,13.40
2022-12-04T16:32:57.051Z,14.47
2022-12-04T16:37:48.805Z,13.63
2022-12-04T16:42:42.035Z,13.57
2022-12-04T16:47:33.721Z,13.97
2022-12-04T16:52:25.593Z,15.50
2022-12-04T16:57:18.187Z,13.57
2022-12-04T17:02:25.444Z,14.23
2022-12-04T17:07:17.086Z,15.80
2022-12-04T17:12:09.768Z,20.63
2022-12-04T17:17:01.416Z,16.43
2022-12-04T17:21:53.147Z,16.60
2022-12-04T17:26:44.844Z,17.77
2022-12-04T17:31:37.352Z,17.03
2022-12-04T17:36:29.059Z,16.53
2022-12-04T17:41:22.469Z,19.63
2022-12-04T17:46:17.299Z,17.20
2022-12-04T17:51:11.772Z,17.37
2022-12-04T17:56:06.224Z,19.47
2022-12-04T18:01:20.309Z,20.33
2022-12-04T18:06:20.506Z,17.23
2022-12-04T18:11:12.601Z,23.33
2022-12-04T18:16:12.072Z,19.80
2022-12-04T18:21:10.272Z,17.20
2022-12-04T18:26:02.244Z,18.50
2022-12-04T18:30:53.966Z,17.77
2022-12-04T18:35:55.113Z,18.07
2022-12-04T18:40:46.733Z,17.57
2022-12-04T18:45:39.639Z,17.10
2022-12-04T18:50:31.336Z,18.07
2022-12-04T18:55:23.457Z,16.80
2022-12-04T19:00:15.541Z,18.77
2022-12-04T19:05:09.228Z,17.27
2022-12-04T19:10:16.347Z,18.60
2022-12-04T19:15:08.266Z,18.63
2022-12-04T19:20:00.236Z,18.63
2022-12-04T19:24:51.928Z,17.03
2022-12-04T19:29:45.453Z,19.53
2022-12-04T19:34:37.975Z,18.87
2022-12-04T19:39:29.630Z,19.47
2022-12-04T19:49:35.274Z,17.37
2022-12-04T19:54:28.088Z,17.40
2022-12-04T19:59:20.552Z,18.17
2022-12-04T20:04:13.067Z,17.77
2022-12-04T20:09:09.659Z,15.93
2022-12-04T20:14:02.252Z,18.87
2022-12-04T20:18:54.235Z,16.53
2022-12-04T20:23:51.175Z,16.67
2022-12-04T20:28:44.002Z,14.07
2022-12-04T20:33:35.623Z,15.03
2022-12-04T20:38:28.011Z,15.87
2022-12-04T20:43:20.368Z,14.37
2022-12-04T20:48:12.435Z,17.47
2022-12-04T20:53:03.990Z,15.33
2022-12-04T20:57:57.289Z,16.50
2022-12-04T21:02:49.401Z,15.73
2022-12-04T21:07:41.106Z,16.53
2022-12-04T21:12:53.086Z,14.53
2022-12-04T21:17:44.731Z,14.50
2022-12-04T21:22:37.092Z,15.27
2022-12-04T21:27:29.549Z,15.87
2022-12-04T21:32:21.742Z,13.43
2022-12-04T21:37:13.293Z,14.80
